sensor_id;sensor_type;location;lat;lon;timestamp;P1;durP1;ratioP1;P2;durP2;ratioP2
14052;SDS011;7101;51.600;7.310;2023-02-13T00:00:51;26.88;;;19.75;;
14052;SDS011;7101;51.600;7.310;2023-02-13T00:03:18;27.80;;;19.45;;
14052;SDS011;7101;51.600;7.310;2023-02-13T00:05:44;25.50;;;19.27;;
14052;SDS011;7101;51.600;7.310;2023-02-13T00:08:11;26.75;;;20.02;;
14052;SDS011;7101;51.600;7.310;2023-02-13T00:10:39;24.38;;;18.92;;
14052;SDS011;7101;51.600;7.310;2023-02-13T00:13:06;24.85;;;18.33;;
14052;SDS011;7101;51.600;7.310;2023-02-13T00:15:33;26.52;;;19.27;;
14052;SDS011;7101;51.600;7.310;2023-02-13T00:18:00;25.70;;;18.50;;
14052;SDS011;7101;51.600;7.310;2023-02-13T00:20:27;24.80;;;18.65;;
14052;SDS011;7101;51.600;7.310;2023-02-13T00:22:54;23.20;;;17.95;;
14052;SDS011;7101;51.600;7.310;2023-02-13T00:25:20;24.42;;;19.60;;
14052;SDS011;7101;51.600;7.310;2023-02-13T00:27:51;26.17;;;18.98;;
14052;SDS011;7101;51.600;7.310;2023-02-13T00:30:18;26.23;;;19.05;;
14052;SDS011;7101;51.600;7.310;2023-02-13T00:32:45;25.48;;;19.75;;
14052;SDS011;7101;51.600;7.310;2023-02-13T00:35:12;26.38;;;18.90;;
14052;SDS011;7101;51.600;7.310;2023-02-13T00:37:39;24.88;;;19.25;;
14052;SDS011;7101;51.600;7.310;2023-02-13T00:40:06;28.00;;;18.83;;
14052;SDS011;7101;51.600;7.310;2023-02-13T00:42:33;25.83;;;19.75;;
14052;SDS011;7101;51.600;7.310;2023-02-13T00:45:02;25.27;;;18.92;;
14052;SDS011;7101;51.600;7.310;2023-02-13T00:47:29;23.80;;;18.35;;
14052;SDS011;7101;51.600;7.310;2023-02-13T00:49:55;28.58;;;19.85;;
14052;SDS011;7101;51.600;7.310;2023-02-13T00:52:22;27.50;;;19.60;;
14052;SDS011;7101;51.600;7.310;2023-02-13T00:54:49;27.05;;;19.42;;
14052;SDS011;7101;51.600;7.310;2023-02-13T00:57:17;24.88;;;19.27;;
14052;SDS011;7101;51.600;7.310;2023-02-13T00:59:45;25.73;;;20.13;;
14052;SDS011;7101;51.600;7.310;2023-02-13T01:02:13;27.05;;;19.48;;
14052;SDS011;7101;51.600;7.310;2023-02-13T01:04:40;26.40;;;19.50;;
14052;SDS011;7101;51.600;7.310;2023-02-13T01:07:06;24.58;;;20.23;;
14052;SDS011;7101;51.600;7.310;2023-02-13T01:09:33;28.83;;;20.60;;
14052;SDS011;7101;51.600;7.310;2023-02-13T01:12:00;28.75;;;19.63;;
14052;SDS011;7101;51.600;7.310;2023-02-13T01:14:27;25.50;;;20.33;;
14052;SDS011;7101;51.600;7.310;2023-02-13T01:16:54;27.67;;;19.77;;
14052;SDS011;7101;51.600;7.310;2023-02-13T01:19:22;26.83;;;19.05;;
14052;SDS011;7101;51.600;7.310;2023-02-13T01:21:49;27.00;;;20.48;;
14052;SDS011;7101;51.600;7.310;2023-02-13T01:24:16;28.20;;;20.77;;
14052;SDS011;7101;51.600;7.310;2023-02-13T01:26:43;28.30;;;20.15;;
14052;SDS011;7101;51.600;7.310;2023-02-13T01:29:11;25.60;;;19.67;;
14052;SDS011;7101;51.600;7.310;2023-02-13T01:31:38;27.20;;;20.27;;
14052;SDS011;7101;51.600;7.310;2023-02-13T01:34:05;26.67;;;20.52;;
14052;SDS011;7101;51.600;7.310;2023-02-13T01:36:33;28.00;;;19.73;;
14052;SDS011;7101;51.600;7.310;2023-02-13T01:39:00;26.77;;;21.13;;
14052;SDS011;7101;51.600;7.310;2023-02-13T01:41:27;30.13;;;20.75;;
14052;SDS011;7101;51.600;7.310;2023-02-13T01:43:55;26.77;;;19.67;;
14052;SDS011;7101;51.600;7.310;2023-02-13T01:46:25;26.48;;;21.17;;
14052;SDS011;7101;51.600;7.310;2023-02-13T01:48:57;26.42;;;19.20;;
14052;SDS011;7101;51.600;7.310;2023-02-13T01:51:30;27.13;;;19.58;;
14052;SDS011;7101;51.600;7.310;2023-02-13T01:54:01;24.42;;;20.02;;
14052;SDS011;7101;51.600;7.310;2023-02-13T01:56:32;27.75;;;20.67;;
14052;SDS011;7101;51.600;7.310;2023-02-13T01:59:04;26.95;;;20.95;;
14052;SDS011;7101;51.600;7.310;2023-02-13T02:01:34;24.90;;;19.33;;
14052;SDS011;7101;51.600;7.310;2023-02-13T02:04:04;27.77;;;20.88;;
14052;SDS011;7101;51.600;7.310;2023-02-13T02:06:36;26.80;;;19.60;;
14052;SDS011;7101;51.600;7.310;2023-02-13T02:09:08;25.27;;;20.30;;
14052;SDS011;7101;51.600;7.310;2023-02-13T02:11:40;28.30;;;20.70;;
14052;SDS011;7101;51.600;7.310;2023-02-13T02:14:11;27.00;;;20.58;;
14052;SDS011;7101;51.600;7.310;2023-02-13T02:16:38;28.63;;;20.77;;
14052;SDS011;7101;51.600;7.310;2023-02-13T02:19:08;26.33;;;20.80;;
14052;SDS011;7101;51.600;7.310;2023-02-13T02:27:55;27.27;;;20.55;;
14052;SDS011;7101;51.600;7.310;2023-02-13T02:30:57;27.77;;;20.60;;
14052;SDS011;7101;51.600;7.310;2023-02-13T02:33:46;25.77;;;18.85;;
14052;SDS011;7101;51.600;7.310;2023-02-13T02:36:28;22.58;;;17.67;;
14052;SDS011;7101;51.600;7.310;2023-02-13T02:39:08;23.35;;;18.08;;
14052;SDS011;7101;51.600;7.310;2023-02-13T02:41:47;21.98;;;17.73;;
14052;SDS011;7101;51.600;7.310;2023-02-13T02:44:26;24.02;;;17.95;;
14052;SDS011;7101;51.600;7.310;2023-02-13T02:47:01;23.27;;;17.42;;
14052;SDS011;7101;51.600;7.310;2023-02-13T02:50:22;22.70;;;16.50;;
14052;SDS011;7101;51.600;7.310;2023-02-13T02:52:56;20.52;;;16.38;;
14052;SDS011;7101;51.600;7.310;2023-02-13T02:55:31;23.10;;;16.88;;
14052;SDS011;7101;51.600;7.310;2023-02-13T02:58:05;21.67;;;16.23;;
14052;SDS011;7101;51.600;7.310;2023-02-13T03:00:53;20.48;;;15.77;;
14052;SDS011;7101;51.600;7.310;2023-02-13T03:03:40;20.02;;;15.15;;
14052;SDS011;7101;51.600;7.310;2023-02-13T03:06:26;17.98;;;13.82;;
14052;SDS011;7101;51.600;7.310;2023-02-13T03:09:00;20.40;;;13.80;;
14052;SDS011;7101;51.600;7.310;2023-02-13T03:11:47;16.33;;;12.95;;
14052;SDS011;7101;51.600;7.310;2023-02-13T03:14:34;14.40;;;11.60;;
14052;SDS011;7101;51.600;7.310;2023-02-13T03:17:01;14.75;;;11.68;;
14052;SDS011;7101;51.600;7.310;2023-02-13T03:19:57;18.90;;;12.05;;
14052;SDS011;7101;51.600;7.310;2023-02-13T03:22:59;15.82;;;11.35;;
14052;SDS011;7101;51.600;7.310;2023-02-13T03:25:42;13.10;;;10.15;;
14052;SDS011;7101;51.600;7.310;2023-02-13T03:28:31;13.02;;;10.05;;
14052;SDS011;7101;51.600;7.310;2023-02-13T03:31:23;11.88;;;9.32;;
14052;SDS011;7101;51.600;7.310;2023-02-13T03:33:56;9.50;;;7.05;;
14052;SDS011;7101;51.600;7.310;2023-02-13T03:36:36;9.05;;;7.15;;
14052;SDS011;7101;51.600;7.310;2023-02-13T03:39:32;9.68;;;6.93;;
14052;SDS011;7101;51.600;7.310;2023-02-13T03:42:07;8.98;;;6.13;;
14052;SDS011;7101;51.600;7.310;2023-02-13T03:44:38;8.63;;;6.10;;
14052;SDS011;7101;51.600;7.310;2023-02-13T03:47:08;7.30;;;6.13;;
14052;SDS011;7101;51.600;7.310;2023-02-13T03:49:39;8.38;;;6.10;;
14052;SDS011;7101;51.600;7.310;2023-02-13T03:52:28;7.55;;;5.90;;
14052;SDS011;7101;51.600;7.310;2023-02-13T03:55:01;7.53;;;5.90;;
14052;SDS011;7101;51.600;7.310;2023-02-13T03:57:49;7.95;;;6.38;;
14052;SDS011;7101;51.600;7.310;2023-02-13T04:00:37;6.80;;;5.38;;
14052;SDS011;7101;51.600;7.310;2023-02-13T04:03:09;6.32;;;5.47;;
14052;SDS011;7101;51.600;7.310;2023-02-13T04:05:40;6.70;;;5.32;;
14052;SDS011;7101;51.600;7.310;2023-02-13T04:08:10;6.85;;;5.72;;
14052;SDS011;7101;51.600;7.310;2023-02-13T04:10:40;6.68;;;5.70;;
14052;SDS011;7101;51.600;7.310;2023-02-13T04:13:14;7.50;;;6.35;;
14052;SDS011;7101;51.600;7.310;2023-02-13T04:15:47;7.10;;;6.00;;
14052;SDS011;7101;51.600;7.310;2023-02-13T04:18:18;7.43;;;6.43;;
14052;SDS011;7101;51.600;7.310;2023-02-13T04:20:47;6.97;;;5.90;;
14052;SDS011;7101;51.600;7.310;2023-02-13T04:23:14;6.93;;;5.97;;
14052;SDS011;7101;51.600;7.310;2023-02-13T04:25:44;7.15;;;5.70;;
14052;SDS011;7101;51.600;7.310;2023-02-13T04:28:13;7.15;;;5.95;;
14052;SDS011;7101;51.600;7.310;2023-02-13T04:30:40;6.82;;;5.53;;
14052;SDS011;7101;51.600;7.310;2023-02-13T04:33:07;6.35;;;5.70;;
14052;SDS011;7101;51.600;7.310;2023-02-13T04:35:34;6.72;;;5.25;;
14052;SDS011;7101;51.600;7.310;2023-02-13T04:38:01;7.15;;;5.43;;
14052;SDS011;7101;51.600;7.310;2023-02-13T04:40:28;7.55;;;5.32;;
14052;SDS011;7101;51.600;7.310;2023-02-13T04:42:56;6.07;;;5.10;;
14052;SDS011;7101;51.600;7.310;2023-02-13T04:45:23;6.28;;;4.85;;
14052;SDS011;7101;51.600;7.310;2023-02-13T04:47:50;7.35;;;5.07;;
14052;SDS011;7101;51.600;7.310;2023-02-13T04:50:18;9.07;;;7.10;;
14052;SDS011;7101;51.600;7.310;2023-02-13T04:52:45;9.50;;;7.40;;
14052;SDS011;7101;51.600;7.310;2023-02-13T04:55:12;11.00;;;8.52;;
14052;SDS011;7101;51.600;7.310;2023-02-13T04:57:39;8.02;;;6.35;;
14052;SDS011;7101;51.600;7.310;2023-02-13T05:00:09;6.72;;;5.70;;
14052;SDS011;7101;51.600;7.310;2023-02-13T05:02:37;5.55;;;4.75;;
14052;SDS011;7101;51.600;7.310;2023-02-13T05:05:04;5.30;;;4.50;;
14052;SDS011;7101;51.600;7.310;2023-02-13T05:07:31;7.05;;;5.35;;
14052;SDS011;7101;51.600;7.310;2023-02-13T05:09:58;5.57;;;4.88;;
14052;SDS011;7101;51.600;7.310;2023-02-13T05:12:25;5.78;;;4.68;;
14052;SDS011;7101;51.600;7.310;2023-02-13T05:14:52;5.97;;;4.88;;
14052;SDS011;7101;51.600;7.310;2023-02-13T05:17:20;6.03;;;5.13;;
14052;SDS011;7101;51.600;7.310;2023-02-13T05:19:47;5.78;;;4.72;;
14052;SDS011;7101;51.600;7.310;2023-02-13T05:22:13;5.72;;;4.40;;
14052;SDS011;7101;51.600;7.310;2023-02-13T05:24:58;6.28;;;4.97;;
14052;SDS011;7101;51.600;7.310;2023-02-13T05:27:25;6.78;;;5.10;;
14052;SDS011;7101;51.600;7.310;2023-02-13T05:29:51;5.65;;;4.75;;
14052;SDS011;7101;51.600;7.310;2023-02-13T05:32:17;6.50;;;4.45;;
14052;SDS011;7101;51.600;7.310;2023-02-13T05:34:45;8.43;;;5.00;;
14052;SDS011;7101;51.600;7.310;2023-02-13T05:37:12;6.75;;;4.70;;
14052;SDS011;7101;51.600;7.310;2023-02-13T05:39:39;6.78;;;4.57;;
14052;SDS011;7101;51.600;7.310;2023-02-13T05:42:06;6.82;;;4.90;;
14052;SDS011;7101;51.600;7.310;2023-02-13T05:44:33;7.65;;;5.55;;
14052;SDS011;7101;51.600;7.310;2023-02-13T05:47:00;9.07;;;5.35;;
14052;SDS011;7101;51.600;7.310;2023-02-13T05:49:27;9.23;;;5.50;;
14052;SDS011;7101;51.600;7.310;2023-02-13T05:51:55;7.57;;;5.85;;
14052;SDS011;7101;51.600;7.310;2023-02-13T05:54:22;9.35;;;5.30;;
14052;SDS011;7101;51.600;7.310;2023-02-13T05:56:48;7.30;;;5.10;;
14052;SDS011;7101;51.600;7.310;2023-02-13T05:59:15;6.85;;;5.60;;
14052;SDS011;7101;51.600;7.310;2023-02-13T06:01:42;8.38;;;5.75;;
14052;SDS011;7101;51.600;7.310;2023-02-13T06:04:09;7.65;;;5.70;;
14052;SDS011;7101;51.600;7.310;2023-02-13T06:06:36;9.25;;;5.95;;
14052;SDS011;7101;51.600;7.310;2023-02-13T06:09:04;8.68;;;6.00;;
14052;SDS011;7101;51.600;7.310;2023-02-13T06:11:32;10.80;;;6.72;;
14052;SDS011;7101;51.600;7.310;2023-02-13T06:13:59;7.97;;;6.32;;
14052;SDS011;7101;51.600;7.310;2023-02-13T06:16:26;8.68;;;6.30;;
14052;SDS011;7101;51.600;7.310;2023-02-13T06:18:55;7.90;;;5.85;;
14052;SDS011;7101;51.600;7.310;2023-02-13T06:21:22;10.43;;;6.78;;
14052;SDS011;7101;51.600;7.310;2023-02-13T06:23:49;11.68;;;7.00;;
14052;SDS011;7101;51.600;7.310;2023-02-13T06:26:17;8.70;;;6.13;;
14052;SDS011;7101;51.600;7.310;2023-02-13T06:28:43;9.40;;;7.15;;
14052;SDS011;7101;51.600;7.310;2023-02-13T06:31:10;10.48;;;7.47;;
14052;SDS011;7101;51.600;7.310;2023-02-13T06:33:37;9.88;;;6.60;;
14052;SDS011;7101;51.600;7.310;2023-02-13T06:36:04;10.07;;;7.45;;
14052;SDS011;7101;51.600;7.310;2023-02-13T06:38:32;9.75;;;7.15;;
14052;SDS011;7101;51.600;7.310;2023-02-13T06:40:59;9.35;;;6.65;;
14052;SDS011;7101;51.600;7.310;2023-02-13T06:43:28;13.98;;;6.97;;
14052;SDS011;7101;51.600;7.310;2023-02-13T06:45:55;10.30;;;6.97;;
14052;SDS011;7101;51.600;7.310;2023-02-13T06:48:22;11.15;;;7.18;;
14052;SDS011;7101;51.600;7.310;2023-02-13T06:50:48;9.02;;;7.35;;
14052;SDS011;7101;51.600;7.310;2023-02-13T06:53:16;9.40;;;7.18;;
14052;SDS011;7101;51.600;7.310;2023-02-13T06:55:48;10.52;;;7.60;;
14052;SDS011;7101;51.600;7.310;2023-02-13T06:58:15;9.68;;;6.88;;
14052;SDS011;7101;51.600;7.310;2023-02-13T07:00:45;10.70;;;7.25;;
14052;SDS011;7101;51.600;7.310;2023-02-13T07:03:12;9.75;;;6.85;;
14052;SDS011;7101;51.600;7.310;2023-02-13T07:05:39;10.88;;;6.90;;
14052;SDS011;7101;51.600;7.310;2023-02-13T07:08:06;9.82;;;7.60;;
14052;SDS011;7101;51.600;7.310;2023-02-13T07:10:32;11.82;;;7.63;;
14052;SDS011;7101;51.600;7.310;2023-02-13T07:13:02;10.35;;;7.43;;
14052;SDS011;7101;51.600;7.310;2023-02-13T07:15:28;9.77;;;6.82;;
14052;SDS011;7101;51.600;7.310;2023-02-13T07:17:56;13.90;;;7.93;;
14052;SDS011;7101;51.600;7.310;2023-02-13T07:20:24;16.52;;;8.25;;
14052;SDS011;7101;51.600;7.310;2023-02-13T07:22:51;12.32;;;7.82;;
14052;SDS011;7101;51.600;7.310;2023-02-13T07:25:19;12.13;;;7.57;;
14052;SDS011;7101;51.600;7.310;2023-02-13T07:27:45;16.55;;;8.65;;
14052;SDS011;7101;51.600;7.310;2023-02-13T07:30:12;13.65;;;8.07;;
14052;SDS011;7101;51.600;7.310;2023-02-13T07:32:39;14.07;;;8.10;;
14052;SDS011;7101;51.600;7.310;2023-02-13T07:35:08;16.02;;;7.95;;
14052;SDS011;7101;51.600;7.310;2023-02-13T07:37:35;11.20;;;8.13;;
14052;SDS011;7101;51.600;7.310;2023-02-13T07:40:02;10.55;;;7.95;;
14052;SDS011;7101;51.600;7.310;2023-02-13T07:42:31;12.85;;;7.97;;
14052;SDS011;7101;51.600;7.310;2023-02-13T07:44:58;10.32;;;7.25;;
14052;SDS011;7101;51.600;7.310;2023-02-13T07:47:25;10.43;;;7.13;;
14052;SDS011;7101;51.600;7.310;2023-02-13T07:49:52;9.57;;;6.72;;
14052;SDS011;7101;51.600;7.310;2023-02-13T07:52:21;9.15;;;6.95;;
14052;SDS011;7101;51.600;7.310;2023-02-13T07:54:48;9.73;;;7.45;;
14052;SDS011;7101;51.600;7.310;2023-02-13T07:57:15;8.73;;;6.82;;
14052;SDS011;7101;51.600;7.310;2023-02-13T07:59:43;9.63;;;6.80;;
14052;SDS011;7101;51.600;7.310;2023-02-13T08:02:10;8.80;;;6.85;;
14052;SDS011;7101;51.600;7.310;2023-02-13T08:04:38;9.52;;;7.00;;
14052;SDS011;7101;51.600;7.310;2023-02-13T08:07:05;9.55;;;6.85;;
14052;SDS011;7101;51.600;7.310;2023-02-13T08:09:34;10.60;;;7.22;;
14052;SDS011;7101;51.600;7.310;2023-02-13T08:12:18;8.80;;;7.18;;
14052;SDS011;7101;51.600;7.310;2023-02-13T08:14:46;9.60;;;7.25;;
14052;SDS011;7101;51.600;7.310;2023-02-13T08:17:12;10.13;;;7.28;;
14052;SDS011;7101;51.600;7.310;2023-02-13T08:19:39;8.82;;;7.15;;
14052;SDS011;7101;51.600;7.310;2023-02-13T08:22:06;11.07;;;7.78;;
14052;SDS011;7101;51.600;7.310;2023-02-13T08:24:34;10.63;;;7.60;;
14052;SDS011;7101;51.600;7.310;2023-02-13T08:27:01;9.13;;;7.03;;
14052;SDS011;7101;51.600;7.310;2023-02-13T08:29:28;10.32;;;8.25;;
14052;SDS011;7101;51.600;7.310;2023-02-13T08:31:55;10.90;;;7.85;;
14052;SDS011;7101;51.600;7.310;2023-02-13T08:34:22;9.60;;;7.93;;
14052;SDS011;7101;51.600;7.310;2023-02-13T08:36:49;9.50;;;7.43;;
14052;SDS011;7101;51.600;7.310;2023-02-13T08:39:15;10.93;;;8.23;;
14052;SDS011;7101;51.600;7.310;2023-02-13T08:41:44;10.85;;;8.30;;
14052;SDS011;7101;51.600;7.310;2023-02-13T08:44:10;12.60;;;8.70;;
14052;SDS011;7101;51.600;7.310;2023-02-13T08:46:37;13.52;;;8.93;;
14052;SDS011;7101;51.600;7.310;2023-02-13T08:49:04;11.93;;;8.55;;
14052;SDS011;7101;51.600;7.310;2023-02-13T08:51:31;11.00;;;7.70;;
14052;SDS011;7101;51.600;7.310;2023-02-13T08:53:58;9.27;;;7.53;;
14052;SDS011;7101;51.600;7.310;2023-02-13T08:56:25;9.85;;;8.18;;
14052;SDS011;7101;51.600;7.310;2023-02-13T08:58:53;12.13;;;8.82;;
14052;SDS011;7101;51.600;7.310;2023-02-13T09:01:20;11.18;;;8.70;;
14052;SDS011;7101;51.600;7.310;2023-02-13T09:03:48;11.80;;;7.88;;
14052;SDS011;7101;51.600;7.310;2023-02-13T09:06:14;12.35;;;7.75;;
14052;SDS011;7101;51.600;7.310;2023-02-13T09:08:41;10.25;;;8.15;;
14052;SDS011;7101;51.600;7.310;2023-02-13T09:11:09;11.02;;;7.80;;
14052;SDS011;7101;51.600;7.310;2023-02-13T09:13:36;11.13;;;7.22;;
14052;SDS011;7101;51.600;7.310;2023-02-13T09:16:04;9.93;;;7.22;;
14052;SDS011;7101;51.600;7.310;2023-02-13T09:18:32;9.05;;;6.72;;
14052;SDS011;7101;51.600;7.310;2023-02-13T09:21:00;9.85;;;7.10;;
14052;SDS011;7101;51.600;7.310;2023-02-13T09:23:30;11.18;;;7.60;;
14052;SDS011;7101;51.600;7.310;2023-02-13T09:25:59;11.88;;;7.45;;
14052;SDS011;7101;51.600;7.310;2023-02-13T09:28:27;9.90;;;6.70;;
14052;SDS011;7101;51.600;7.310;2023-02-13T09:30:57;9.05;;;6.68;;
14052;SDS011;7101;51.600;7.310;2023-02-13T09:33:25;8.68;;;6.80;;
14052;SDS011;7101;51.600;7.310;2023-02-13T09:35:52;9.07;;;7.15;;
14052;SDS011;7101;51.600;7.310;2023-02-13T09:38:19;10.25;;;7.07;;
14052;SDS011;7101;51.600;7.310;2023-02-13T09:40:46;10.40;;;7.40;;
14052;SDS011;7101;51.600;7.310;2023-02-13T09:43:16;10.48;;;7.57;;
14052;SDS011;7101;51.600;7.310;2023-02-13T09:45:48;9.88;;;7.63;;
14052;SDS011;7101;51.600;7.310;2023-02-13T09:48:18;10.52;;;7.07;;
14052;SDS011;7101;51.600;7.310;2023-02-13T09:50:53;11.13;;;7.40;;
14052;SDS011;7101;51.600;7.310;2023-02-13T09:53:21;9.90;;;7.55;;
14052;SDS011;7101;51.600;7.310;2023-02-13T09:55:53;11.95;;;8.30;;
14052;SDS011;7101;51.600;7.310;2023-02-13T09:58:31;8.75;;;6.60;;
14052;SDS011;7101;51.600;7.310;2023-02-13T10:01:05;9.57;;;7.90;;
14052;SDS011;7101;51.600;7.310;2023-02-13T10:03:44;11.60;;;8.25;;
14052;SDS011;7101;51.600;7.310;2023-02-13T10:06:20;10.30;;;7.70;;
14052;SDS011;7101;51.600;7.310;2023-02-13T10:09:01;9.25;;;7.07;;
14052;SDS011;7101;51.600;7.310;2023-02-13T10:11:37;12.45;;;8.57;;
14052;SDS011;7101;51.600;7.310;2023-02-13T10:14:17;10.93;;;7.85;;
14052;SDS011;7101;51.600;7.310;2023-02-13T10:16:49;9.77;;;8.18;;
14052;SDS011;7101;51.600;7.310;2023-02-13T10:19:24;10.13;;;8.13;;
14052;SDS011;7101;51.600;7.310;2023-02-13T10:22:03;11.00;;;8.57;;
14052;SDS011;7101;51.600;7.310;2023-02-13T10:24:34;10.13;;;7.68;;
14052;SDS011;7101;51.600;7.310;2023-02-13T10:27:04;10.25;;;8.38;;
14052;SDS011;7101;51.600;7.310;2023-02-13T10:29:44;10.40;;;7.70;;
14052;SDS011;7101;51.600;7.310;2023-02-13T10:32:36;13.43;;;8.70;;
14052;SDS011;7101;51.600;7.310;2023-02-13T10:35:15;10.40;;;8.32;;
14052;SDS011;7101;51.600;7.310;2023-02-13T10:37:47;9.65;;;7.68;;
14052;SDS011;7101;51.600;7.310;2023-02-13T10:40:18;10.73;;;8.43;;
14052;SDS011;7101;51.600;7.310;2023-02-13T10:42:46;10.00;;;8.07;;
14052;SDS011;7101;51.600;7.310;2023-02-13T10:45:24;10.75;;;8.57;;
14052;SDS011;7101;51.600;7.310;2023-02-13T10:48:10;11.02;;;8.00;;
14052;SDS011;7101;51.600;7.310;2023-02-13T10:50:53;10.90;;;8.57;;
14052;SDS011;7101;51.600;7.310;2023-02-13T10:53:30;9.27;;;7.90;;
14052;SDS011;7101;51.600;7.310;2023-02-13T10:56:14;10.77;;;7.97;;
14052;SDS011;7101;51.600;7.310;2023-02-13T10:58:53;9.88;;;8.27;;
14052;SDS011;7101;51.600;7.310;2023-02-13T11:01:33;9.15;;;8.07;;
14052;SDS011;7101;51.600;7.310;2023-02-13T11:04:05;11.55;;;8.80;;
14052;SDS011;7101;51.600;7.310;2023-02-13T11:06:36;9.80;;;7.70;;
14052;SDS011;7101;51.600;7.310;2023-02-13T11:09:08;10.65;;;8.68;;
14052;SDS011;7101;51.600;7.310;2023-02-13T11:11:38;9.82;;;7.63;;
14052;SDS011;7101;51.600;7.310;2023-02-13T11:14:08;9.45;;;7.20;;
14052;SDS011;7101;51.600;7.310;2023-02-13T11:16:38;10.82;;;8.20;;
14052;SDS011;7101;51.600;7.310;2023-02-13T11:19:13;10.13;;;7.97;;
14052;SDS011;7101;51.600;7.310;2023-02-13T11:21:43;8.60;;;7.30;;
14052;SDS011;7101;51.600;7.310;2023-02-13T11:24:20;11.23;;;8.20;;
14052;SDS011;7101;51.600;7.310;2023-02-13T11:26:52;10.30;;;8.48;;
14052;SDS011;7101;51.600;7.310;2023-02-13T11:29:23;11.07;;;8.35;;
14052;SDS011;7101;51.600;7.310;2023-02-13T11:34:44;10.27;;;7.97;;
14052;SDS011;7101;51.600;7.310;2023-02-13T11:37:14;10.18;;;7.63;;
14052;SDS011;7101;51.600;7.310;2023-02-13T11:39:51;12.38;;;8.35;;
14052;SDS011;7101;51.600;7.310;2023-02-13T11:42:20;13.40;;;8.45;;
14052;SDS011;7101;51.600;7.310;2023-02-13T11:44:54;11.20;;;8.25;;
14052;SDS011;7101;51.600;7.310;2023-02-13T11:47:38;10.18;;;7.85;;
14052;SDS011;7101;51.600;7.310;2023-02-13T11:50:18;11.93;;;8.38;;
14052;SDS011;7101;51.600;7.310;2023-02-13T11:52:51;10.68;;;7.93;;
14052;SDS011;7101;51.600;7.310;2023-02-13T11:55:28;9.88;;;7.95;;
14052;SDS011;7101;51.600;7.310;2023-02-13T11:57:57;10.52;;;7.65;;
14052;SDS011;7101;51.600;7.310;2023-02-13T12:00:27;8.80;;;7.43;;
14052;SDS011;7101;51.600;7.310;2023-02-13T12:06:00;10.93;;;7.63;;
14052;SDS011;7101;51.600;7.310;2023-02-13T12:08:29;12.00;;;7.00;;
14052;SDS011;7101;51.600;7.310;2023-02-13T12:11:00;9.25;;;7.63;;
14052;SDS011;7101;51.600;7.310;2023-02-13T12:13:34;8.40;;;7.50;;
14052;SDS011;7101;51.600;7.310;2023-02-13T12:16:05;8.95;;;6.53;;
14052;SDS011;7101;51.600;7.310;2023-02-13T12:18:40;8.75;;;7.35;;
14052;SDS011;7101;51.600;7.310;2023-02-13T12:21:17;8.05;;;6.65;;
14052;SDS011;7101;51.600;7.310;2023-02-13T12:23:56;11.48;;;6.85;;
14052;SDS011;7101;51.600;7.310;2023-02-13T12:26:30;8.85;;;6.68;;
14052;SDS011;7101;51.600;7.310;2023-02-13T12:29:05;7.90;;;6.05;;
14052;SDS011;7101;51.600;7.310;2023-02-13T12:31:54;9.65;;;7.10;;
14052;SDS011;7101;51.600;7.310;2023-02-13T12:34:41;7.97;;;6.68;;
14052;SDS011;7101;51.600;7.310;2023-02-13T12:37:44;9.65;;;6.93;;
14052;SDS011;7101;51.600;7.310;2023-02-13T12:40:25;7.70;;;6.03;;
14052;SDS011;7101;51.600;7.310;2023-02-13T12:43:11;8.07;;;6.40;;
14052;SDS011;7101;51.600;7.310;2023-02-13T12:46:16;8.02;;;6.68;;
14052;SDS011;7101;51.600;7.310;2023-02-13T12:48:55;8.98;;;6.35;;
14052;SDS011;7101;51.600;7.310;2023-02-13T12:51:34;7.72;;;6.25;;
14052;SDS011;7101;51.600;7.310;2023-02-13T12:54:18;7.80;;;6.28;;
14052;SDS011;7101;51.600;7.310;2023-02-13T12:57:03;8.85;;;6.18;;
14052;SDS011;7101;51.600;7.310;2023-02-13T12:59:45;8.32;;;6.47;;
14052;SDS011;7101;51.600;7.310;2023-02-13T13:05:36;8.50;;;6.32;;
14052;SDS011;7101;51.600;7.310;2023-02-13T13:08:20;7.35;;;5.85;;
14052;SDS011;7101;51.600;7.310;2023-02-13T13:11:04;7.22;;;6.00;;
14052;SDS011;7101;51.600;7.310;2023-02-13T13:13:46;6.32;;;5.32;;
14052;SDS011;7101;51.600;7.310;2023-02-13T13:16:25;7.57;;;5.95;;
14052;SDS011;7101;51.600;7.310;2023-02-13T13:19:02;7.43;;;5.75;;
14052;SDS011;7101;51.600;7.310;2023-02-13T13:21:38;6.00;;;5.15;;
14052;SDS011;7101;51.600;7.310;2023-02-13T13:24:15;7.32;;;5.47;;
14052;SDS011;7101;51.600;7.310;2023-02-13T13:26:48;7.55;;;5.85;;
14052;SDS011;7101;51.600;7.310;2023-02-13T13:29:19;9.50;;;5.70;;
14052;SDS011;7101;51.600;7.310;2023-02-13T13:31:51;7.55;;;5.85;;
14052;SDS011;7101;51.600;7.310;2023-02-13T13:34:21;7.05;;;5.50;;
14052;SDS011;7101;51.600;7.310;2023-02-13T13:36:52;8.10;;;5.55;;
14052;SDS011;7101;51.600;7.310;2023-02-13T13:39:26;7.78;;;6.35;;
14052;SDS011;7101;51.600;7.310;2023-02-13T13:42:04;8.15;;;5.70;;
14052;SDS011;7101;51.600;7.310;2023-02-13T13:47:47;6.78;;;5.57;;
14052;SDS011;7101;51.600;7.310;2023-02-13T13:50:22;6.82;;;5.38;;
14052;SDS011;7101;51.600;7.310;2023-02-13T13:53:11;9.18;;;6.00;;
14052;SDS011;7101;51.600;7.310;2023-02-13T13:55:59;7.85;;;5.90;;
14052;SDS011;7101;51.600;7.310;2023-02-13T13:58:34;6.97;;;5.78;;
14052;SDS011;7101;51.600;7.310;2023-02-13T14:01:16;9.57;;;5.47;;
14052;SDS011;7101;51.600;7.310;2023-02-13T14:03:50;9.25;;;5.60;;
14052;SDS011;7101;51.600;7.310;2023-02-13T14:06:18;7.63;;;5.70;;
14052;SDS011;7101;51.600;7.310;2023-02-13T14:08:58;7.93;;;5.78;;
14052;SDS011;7101;51.600;7.310;2023-02-13T14:11:42;9.43;;;5.63;;
14052;SDS011;7101;51.600;7.310;2023-02-13T14:20:29;6.68;;;5.35;;
14052;SDS011;7101;51.600;7.310;2023-02-13T14:23:18;6.63;;;5.13;;
14052;SDS011;7101;51.600;7.310;2023-02-13T14:32:01;7.82;;;6.07;;
14052;SDS011;7101;51.600;7.310;2023-02-13T14:34:50;9.05;;;5.75;;
14052;SDS011;7101;51.600;7.310;2023-02-13T14:37:21;14.07;;;6.07;;
14052;SDS011;7101;51.600;7.310;2023-02-13T14:45:50;8.00;;;6.65;;
14052;SDS011;7101;51.600;7.310;2023-02-13T14:48:21;14.45;;;7.25;;
14052;SDS011;7101;51.600;7.310;2023-02-13T14:50:54;14.98;;;6.72;;
14052;SDS011;7101;51.600;7.310;2023-02-13T14:53:26;11.00;;;7.03;;
14052;SDS011;7101;51.600;7.310;2023-02-13T14:55:56;8.63;;;6.72;;
14052;SDS011;7101;51.600;7.310;2023-02-13T14:58:28;9.52;;;6.53;;
14052;SDS011;7101;51.600;7.310;2023-02-13T15:00:59;8.10;;;6.95;;
14052;SDS011;7101;51.600;7.310;2023-02-13T15:03:33;11.48;;;7.47;;
14052;SDS011;7101;51.600;7.310;2023-02-13T15:06:03;12.05;;;6.97;;
14052;SDS011;7101;51.600;7.310;2023-02-13T15:08:40;9.65;;;6.90;;
14052;SDS011;7101;51.600;7.310;2023-02-13T15:11:12;9.75;;;6.45;;
14052;SDS011;7101;51.600;7.310;2023-02-13T15:14:13;10.25;;;6.53;;
14052;SDS011;7101;51.600;7.310;2023-02-13T15:16:41;9.55;;;6.82;;
14052;SDS011;7101;51.600;7.310;2023-02-13T15:19:11;10.38;;;7.07;;
14052;SDS011;7101;51.600;7.310;2023-02-13T15:21:45;13.75;;;8.10;;
14052;SDS011;7101;51.600;7.310;2023-02-13T15:24:17;10.68;;;7.20;;
14052;SDS011;7101;51.600;7.310;2023-02-13T15:29:51;10.30;;;7.05;;
14052;SDS011;7101;51.600;7.310;2023-02-13T15:32:20;11.75;;;7.47;;
14052;SDS011;7101;51.600;7.310;2023-02-13T15:34:52;8.77;;;6.95;;
14052;SDS011;7101;51.600;7.310;2023-02-13T15:37:20;10.45;;;7.55;;
14052;SDS011;7101;51.600;7.310;2023-02-13T15:39:50;10.80;;;7.13;;
14052;SDS011;7101;51.600;7.310;2023-02-13T15:42:16;8.55;;;7.05;;
14052;SDS011;7101;51.600;7.310;2023-02-13T15:44:44;14.45;;;7.60;;
14052;SDS011;7101;51.600;7.310;2023-02-13T15:47:14;9.13;;;7.32;;
14052;SDS011;7101;51.600;7.310;2023-02-13T15:49:44;12.60;;;7.07;;
14052;SDS011;7101;51.600;7.310;2023-02-13T15:52:17;11.45;;;7.40;;
14052;SDS011;7101;51.600;7.310;2023-02-13T15:54:47;11.50;;;7.25;;
14052;SDS011;7101;51.600;7.310;2023-02-13T15:57:16;8.80;;;7.07;;
14052;SDS011;7101;51.600;7.310;2023-02-13T15:59:45;10.38;;;6.78;;